Time;durP1;ratioP1;P1;durP2;ratioP2;P2;SDS_P1;SDS_P2;PMS_P1;PMS_P2;Temp;Humidity;BMP_temperature;BMP_pressure;BME280_temperature;BME280_humidity;BME280_pressure;Samples;Min_cycle;Max_cycle;Signal;HPM_P1;HPM_P2
2022/07/18 00:01:42;;;;;;;8.55;4.95;;;;;;;;;;5135162;27;20110;-66
2022/07/18 00:04:08;;;;;;;7.25;4.80;;;;;;;;;;5134405;27;20031;-66
2022/07/18 00:06:35;;;;;;;7.93;5.45;;;;;;;;;;5134614;27;20055;-66
2022/07/18 00:09:01;;;;;;;8.85;5.35;;;;;;;;;;5135027;27;20053;-66
2022/07/18 00:11:26;;;;;;;6.95;4.80;;;;;;;;;;5134037;27;20042;-66
2022/07/18 00:13:52;;;;;;;8.70;5.38;;;;;;;;;;5134599;27;20450;-66
2022/07/18 00:16:19;;;;;;;8.50;5.32;;;;;;;;;;5134814;27;20182;-66
2022/07/18 00:18:45;;;;;;;8.07;5.20;;;;;;;;;;5134464;27;20118;-66
2022/07/18 00:21:11;;;;;;;9.57;5.82;;;;;;;;;;5134545;27;20035;-66
2022/07/18 00:23:37;;;;;;;8.13;5.78;;;;;;;;;;5134450;27;20058;-66
2022/07/18 00:26:03;;;;;;;9.18;5.72;;;;;;;;;;5125608;27;20115;-66
2022/07/18 00:28:29;;;;;;;8.23;4.97;;;;;;;;;;5114062;28;20439;-66
2022/07/18 00:30:55;;;;;;;8.07;5.25;;;;;;;;;;5114038;28;20040;-66
2022/07/18 00:33:22;;;;;;;8.45;5.47;;;;;;;;;;5113215;28;20039;-66
2022/07/18 00:35:48;;;;;;;8.32;5.30;;;;;;;;;;5113867;28;20040;-66
2022/07/18 00:38:14;;;;;;;8.07;5.72;;;;;;;;;;5113825;28;20500;-66
2022/07/18 00:40:40;;;;;;;9.18;5.78;;;;;;;;;;5113005;28;20126;-66
2022/07/18 00:43:06;;;;;;;8.70;5.97;;;;;;;;;;5113545;28;20588;-66
2022/07/18 00:45:32;;;;;;;9.10;5.60;;;;;;;;;;5113754;28;20036;-66
2022/07/18 00:47:58;;;;;;;8.27;5.65;;;;;;;;;;5112906;28;20524;-66
2022/07/18 00:50:24;;;;;;;8.05;5.93;;;;;;;;;;5112282;28;20119;-66
2022/07/18 00:52:51;;;;;;;7.65;5.63;;;;;;;;;;5113463;28;20047;-66
2022/07/18 00:55:17;;;;;;;8.27;6.15;;;;;;;;;;5112953;28;20044;-66
2022/07/18 00:57:43;;;;;;;7.80;5.18;;;;;;;;;;5113384;28;20047;-66
2022/07/18 01:02:55;;;;;;;9.32;5.30;;;;;;;;;;5112554;28;20504;-66
2022/07/18 01:05:21;;;;;;;7.90;5.70;;;;;;;;;;5113312;28;20051;-66
2022/07/18 01:07:47;;;;;;;9.73;5.60;;;;;;;;;;5113074;28;20065;-66
2022/07/18 01:10:14;;;;;;;8.15;5.20;;;;;;;;;;5111470;28;20425;-66
2022/07/18 01:12:40;;;;;;;9.02;5.47;;;;;;;;;;5113174;28;20043;-66
2022/07/18 01:15:07;;;;;;;7.85;5.10;;;;;;;;;;5113148;28;20436;-66
2022/07/18 01:17:33;;;;;;;10.20;6.15;;;;;;;;;;5112362;28;20119;-66
2022/07/18 01:19:59;;;;;;;7.93;6.22;;;;;;;;;;5113082;28;20089;-66
2022/07/18 01:22:25;;;;;;;8.35;5.63;;;;;;;;;;5112791;28;20456;-66
2022/07/18 01:24:51;;;;;;;8.85;5.80;;;;;;;;;;5112013;28;20445;-66
2022/07/18 01:27:19;;;;;;;10.45;6.45;;;;;;;;;;5131599;27;20481;-66
2022/07/18 01:29:45;;;;;;;8.98;6.25;;;;;;;;;;5133363;27;20043;-66
2022/07/18 01:32:12;;;;;;;10.18;7.13;;;;;;;;;;5132671;27;20047;-66
2022/07/18 01:34:38;;;;;;;10.93;7.22;;;;;;;;;;5133434;27;20383;-66
2022/07/18 01:37:04;;;;;;;11.25;7.07;;;;;;;;;;5133207;27;20039;-66
2022/07/18 01:39:30;;;;;;;10.18;6.63;;;;;;;;;;5132715;27;20038;-66
2022/07/18 01:42:00;;;;;;;12.25;6.78;;;;;;;;;;5132900;27;20042;-66
2022/07/18 01:44:27;;;;;;;10.00;6.53;;;;;;;;;;5132797;27;20042;-66
2022/07/18 01:46:53;;;;;;;10.93;7.22;;;;;;;;;;5131208;27;20072;-66
2022/07/18 01:49:19;;;;;;;10.77;6.70;;;;;;;;;;5133022;27;20546;-66
2022/07/18 01:51:46;;;;;;;13.25;7.18;;;;;;;;;;5132949;27;20492;-66
2022/07/18 01:54:12;;;;;;;10.30;7.03;;;;;;;;;;5132271;27;20035;-66
2022/07/18 01:56:38;;;;;;;10.32;6.28;;;;;;;;;;5132747;27;20060;-66
2022/07/18 01:59:04;;;;;;;8.52;6.40;;;;;;;;;;5132781;27;20032;-66
2022/07/18 02:01:30;;;;;;;8.70;6.10;;;;;;;;;;5132089;27;20031;-66
2022/07/18 02:03:56;;;;;;;8.32;5.65;;;;;;;;;;5132633;27;20074;-66
2022/07/18 02:06:22;;;;;;;10.05;7.35;;;;;;;;;;5132379;27;20390;-66
2022/07/18 02:08:48;;;;;;;13.63;7.07;;;;;;;;;;5131908;27;20047;-66
2022/07/18 02:11:14;;;;;;;10.65;6.97;;;;;;;;;;5132446;27;20096;-66
2022/07/18 02:13:40;;;;;;;12.02;7.00;;;;;;;;;;5132651;27;20077;-66
2022/07/18 02:16:06;;;;;;;10.85;6.82;;;;;;;;;;5131797;27;20043;-66
2022/07/18 02:18:32;;;;;;;9.95;6.53;;;;;;;;;;5132492;27;20088;-66
2022/07/18 02:21:01;;;;;;;10.00;6.63;;;;;;;;;;5132038;27;20035;-66
2022/07/18 02:23:27;;;;;;;10.40;7.07;;;;;;;;;;5130301;27;20561;-66
2022/07/18 02:25:54;;;;;;;11.93;6.88;;;;;;;;;;5125354;27;20057;-66
2022/07/18 02:28:19;;;;;;;12.60;7.22;;;;;;;;;;5111695;28;20035;-66
2022/07/18 02:30:46;;;;;;;12.07;7.32;;;;;;;;;;5110701;28;20508;-66
2022/07/18 02:33:12;;;;;;;11.60;7.22;;;;;;;;;;5111297;28;20081;-66
2022/07/18 02:35:38;;;;;;;11.65;7.78;;;;;;;;;;5111549;28;20036;-66
2022/07/18 02:38:04;;;;;;;12.05;7.65;;;;;;;;;;5110701;28;20039;-66
2022/07/18 02:40:29;;;;;;;10.82;7.10;;;;;;;;;;5111448;28;20119;-66
2022/07/18 02:42:55;;;;;;;11.30;6.55;;;;;;;;;;5111177;28;20042;-66
2022/07/18 02:45:21;;;;;;;11.52;6.60;;;;;;;;;;5110828;28;20394;-66
2022/07/18 02:47:47;;;;;;;13.98;7.45;;;;;;;;;;5111230;28;20060;-66
2022/07/18 02:50:13;;;;;;;11.52;7.15;;;;;;;;;;5109636;28;20043;-66
2022/07/18 02:52:40;;;;;;;11.85;7.35;;;;;;;;;;5111044;28;20063;-66
2022/07/18 02:55:06;;;;;;;15.27;7.38;;;;;;;;;;5110588;28;20036;-66
2022/07/18 02:57:32;;;;;;;11.00;7.28;;;;;;;;;;5111009;28;20206;-66
2022/07/18 02:59:58;;;;;;;11.50;6.93;;;;;;;;;;5111094;28;20494;-66
2022/07/18 03:02:24;;;;;;;12.40;6.82;;;;;;;;;;5110372;28;20098;-66
2022/07/18 03:04:50;;;;;;;10.35;6.57;;;;;;;;;;5110777;28;20052;-66
2022/07/18 03:07:16;;;;;;;11.60;7.22;;;;;;;;;;5110899;28;20403;-66
2022/07/18 03:09:42;;;;;;;10.75;6.65;;;;;;;;;;5110198;28;20040;-66
2022/07/18 03:12:09;;;;;;;10.45;6.43;;;;;;;;;;5110760;27;20046;-66
2022/07/18 03:14:35;;;;;;;9.02;6.55;;;;;;;;;;5111029;28;20120;-66
2022/07/18 03:17:01;;;;;;;11.77;7.18;;;;;;;;;;5109976;28;20069;-66
2022/07/18 03:19:27;;;;;;;10.10;6.72;;;;;;;;;;5110656;28;20040;-66
2022/07/18 03:21:53;;;;;;;8.52;6.68;;;;;;;;;;5110414;28;20043;-66
2022/07/18 03:24:19;;;;;;;8.82;6.43;;;;;;;;;;5110202;28;20083;-66
2022/07/18 03:26:45;;;;;;;8.20;6.32;;;;;;;;;;5123586;27;20043;-66
2022/07/18 03:29:11;;;;;;;10.65;6.32;;;;;;;;;;5131239;27;20043;-66
2022/07/18 03:31:37;;;;;;;10.98;7.05;;;;;;;;;;5129995;27;20046;-66
2022/07/18 03:34:03;;;;;;;11.50;6.50;;;;;;;;;;5131202;27;20031;-66
2022/07/18 03:36:29;;;;;;;10.35;6.97;;;;;;;;;;5130931;27;20050;-66
2022/07/18 03:38:55;;;;;;;12.68;7.30;;;;;;;;;;5130177;27;20035;-66
2022/07/18 03:41:21;;;;;;;14.18;7.65;;;;;;;;;;5129579;28;20038;-66
2022/07/18 03:43:47;;;;;;;13.02;7.82;;;;;;;;;;5131160;27;20054;-66
2022/07/18 03:46:13;;;;;;;12.50;7.30;;;;;;;;;;5130570;27;20039;-66
2022/07/18 03:48:39;;;;;;;13.25;7.95;;;;;;;;;;5130632;27;20401;-66
2022/07/18 03:51:05;;;;;;;11.73;7.40;;;;;;;;;;5130909;27;20039;-66
2022/07/18 03:53:32;;;;;;;12.43;7.85;;;;;;;;;;5130466;27;20084;-66
2022/07/18 03:55:58;;;;;;;13.13;8.93;;;;;;;;;;5131037;27;20402;-66
2022/07/18 03:58:24;;;;;;;13.85;7.90;;;;;;;;;;5131160;27;20046;-66
2022/07/18 04:00:51;;;;;;;14.02;7.82;;;;;;;;;;5130607;27;20325;-66
2022/07/18 04:03:17;;;;;;;12.20;7.72;;;;;;;;;;5130632;27;20042;-66
2022/07/18 04:05:44;;;;;;;16.63;8.52;;;;;;;;;;5130576;27;20059;-66
2022/07/18 04:08:10;;;;;;;10.73;7.35;;;;;;;;;;5130102;27;20043;-66
2022/07/18 04:10:39;;;;;;;13.52;7.68;;;;;;;;;;5131104;27;20039;-66
2022/07/18 04:13:05;;;;;;;12.32;7.25;;;;;;;;;;5130715;27;20122;-66
2022/07/18 04:15:31;;;;;;;16.27;8.55;;;;;;;;;;5130055;27;20043;-66
2022/07/18 04:17:58;;;;;;;14.02;7.78;;;;;;;;;;5130993;27;20075;-66
2022/07/18 04:20:24;;;;;;;12.38;7.78;;;;;;;;;;5130715;27;20063;-66
2022/07/18 04:22:52;;;;;;;14.73;8.20;;;;;;;;;;5129907;27;20374;-66
2022/07/18 04:25:18;;;;;;;13.55;8.20;;;;;;;;;;5128838;27;20034;-66
2022/07/18 04:27:45;;;;;;;11.77;7.80;;;;;;;;;;5111466;28;20467;-66
2022/07/18 04:30:11;;;;;;;16.65;8.45;;;;;;;;;;5110978;28;20407;-66
2022/07/18 04:32:38;;;;;;;15.23;8.60;;;;;;;;;;5111397;28;20440;-66
2022/07/18 04:35:04;;;;;;;15.15;8.23;;;;;;;;;;5111421;28;20043;-66
2022/07/18 04:37:31;;;;;;;16.25;8.07;;;;;;;;;;5110759;28;20050;-66
2022/07/18 04:39:57;;;;;;;10.45;7.35;;;;;;;;;;5111469;28;20047;-66
2022/07/18 04:42:23;;;;;;;15.90;8.00;;;;;;;;;;5109675;28;20057;-66
2022/07/18 04:44:49;;;;;;;13.70;7.97;;;;;;;;;;5112640;28;20393;-66
2022/07/18 04:47:15;;;;;;;13.98;8.27;;;;;;;;;;5114863;28;20043;-66
2022/07/18 04:49:42;;;;;;;11.93;7.90;;;;;;;;;;5114747;28;20131;-66
2022/07/18 04:52:08;;;;;;;13.70;7.88;;;;;;;;;;5114266;28;20077;-66
2022/07/18 04:54:34;;;;;;;15.88;8.18;;;;;;;;;;5114618;28;20051;-66
2022/07/18 04:57:00;;;;;;;10.80;7.50;;;;;;;;;;5114707;28;20370;-66
2022/07/18 04:59:26;;;;;;;16.80;7.75;;;;;;;;;;5113737;28;20043;-66
2022/07/18 05:01:52;;;;;;;13.40;7.88;;;;;;;;;;5114606;28;20051;-66
2022/07/18 05:04:18;;;;;;;14.90;7.70;;;;;;;;;;5114693;28;20039;-66
2022/07/18 05:06:44;;;;;;;19.55;7.72;;;;;;;;;;5114127;28;20054;-66
2022/07/18 05:09:10;;;;;;;11.10;7.68;;;;;;;;;;5114601;28;20476;-66
2022/07/18 05:11:36;;;;;;;11.02;7.47;;;;;;;;;;5114210;28;20123;-66
2022/07/18 05:14:02;;;;;;;14.27;7.63;;;;;;;;;;5113643;28;20171;-66
2022/07/18 05:16:28;;;;;;;14.85;7.65;;;;;;;;;;5114151;27;20056;-66
2022/07/18 05:18:54;;;;;;;11.43;7.75;;;;;;;;;;5114569;28;20039;-66
2022/07/18 05:21:20;;;;;;;11.38;7.70;;;;;;;;;;5113371;28;20065;-66
2022/07/18 05:23:46;;;;;;;12.15;8.40;;;;;;;;;;5114370;28;20047;-66
2022/07/18 05:26:13;;;;;;;14.18;7.43;;;;;;;;;;5123829;27;20042;-66
2022/07/18 05:28:39;;;;;;;13.68;7.63;;;;;;;;;;5134169;27;20476;-66
2022/07/18 05:31:05;;;;;;;12.27;7.00;;;;;;;;;;5134665;27;20031;-66
2022/07/18 05:33:31;;;;;;;11.65;7.28;;;;;;;;;;5134678;27;20374;-66
2022/07/18 05:35:57;;;;;;;11.80;7.70;;;;;;;;;;5134097;27;20114;-66
2022/07/18 05:38:23;;;;;;;11.07;7.25;;;;;;;;;;5134861;27;20122;-66
2022/07/18 05:40:50;;;;;;;12.13;7.72;;;;;;;;;;5134682;27;20654;-66
2022/07/18 05:43:16;;;;;;;12.23;7.10;;;;;;;;;;5133727;27;20046;-66
2022/07/18 05:45:42;;;;;;;11.30;6.97;;;;;;;;;;5134780;27;20087;-64
2022/07/18 05:48:08;;;;;;;10.55;6.95;;;;;;;;;;5150184;27;20043;-64
2022/07/18 05:50:34;;;;;;;13.07;6.97;;;;;;;;;;5142311;27;20559;-64
2022/07/18 05:53:00;;;;;;;11.13;6.53;;;;;;;;;;5149901;27;20484;-66
2022/07/18 05:55:26;;;;;;;13.57;7.18;;;;;;;;;;5149383;27;20035;-65
2022/07/18 05:57:53;;;;;;;13.60;7.00;;;;;;;;;;5153882;27;20038;-65
2022/07/18 06:00:19;;;;;;;12.40;7.38;;;;;;;;;;5133716;27;20070;-66
2022/07/18 06:02:47;;;;;;;11.90;6.68;;;;;;;;;;5131876;27;20039;-64
2022/07/18 06:05:13;;;;;;;11.05;6.93;;;;;;;;;;5132879;27;20156;-65
2022/07/18 06:07:39;;;;;;;11.70;6.57;;;;;;;;;;5137156;27;20047;-66
2022/07/18 06:10:06;;;;;;;12.43;6.28;;;;;;;;;;5137294;27;20043;-67
2022/07/18 06:12:32;;;;;;;8.82;5.88;;;;;;;;;;5139231;27;20040;-68
2022/07/18 06:14:59;;;;;;;10.48;5.60;;;;;;;;;;5135742;27;20179;-68
2022/07/18 06:17:25;;;;;;;6.90;4.55;;;;;;;;;;5152364;27;20043;-67
2022/07/18 06:19:51;;;;;;;11.23;4.88;;;;;;;;;;5132323;27;20035;-67
2022/07/18 06:22:18;;;;;;;8.00;4.85;;;;;;;;;;5135363;27;20115;-65
2022/07/18 06:24:44;;;;;;;9.07;4.95;;;;;;;;;;5137504;27;20082;-66
2022/07/18 06:27:10;;;;;;;11.73;5.35;;;;;;;;;;5145669;27;20038;-65
2022/07/18 06:29:36;;;;;;;10.13;4.85;;;;;;;;;;5122677;27;20037;-66
2022/07/18 06:32:02;;;;;;;7.28;4.60;;;;;;;;;;5152971;27;20121;-67
2022/07/18 06:34:28;;;;;;;8.07;4.40;;;;;;;;;;5150464;27;20057;-65
2022/07/18 06:36:54;;;;;;;7.20;4.10;;;;;;;;;;5129387;27;20067;-65
2022/07/18 06:39:21;;;;;;;10.18;3.53;;;;;;;;;;5146830;27;20058;-66
2022/07/18 06:41:47;;;;;;;7.97;3.90;;;;;;;;;;5153493;27;20560;-66
2022/07/18 06:44:13;;;;;;;6.70;3.78;;;;;;;;;;5153151;27;20099;-65
2022/07/18 06:46:39;;;;;;;7.13;3.70;;;;;;;;;;5150745;27;20070;-66
2022/07/18 06:49:06;;;;;;;7.25;4.05;;;;;;;;;;5130511;27;20039;-66
2022/07/18 06:51:32;;;;;;;7.85;3.63;;;;;;;;;;5124167;27;20097;-66
2022/07/18 06:53:58;;;;;;;5.75;3.58;;;;;;;;;;5126654;27;20667;-66
2022/07/18 06:56:25;;;;;;;4.32;3.13;;;;;;;;;;5132854;27;20043;-64
2022/07/18 06:58:51;;;;;;;7.97;3.58;;;;;;;;;;5125885;27;20061;-64
2022/07/18 07:01:18;;;;;;;8.57;3.90;;;;;;;;;;5121994;27;20035;-66
2022/07/18 07:03:44;;;;;;;8.30;3.55;;;;;;;;;;5142993;27;20118;-66
2022/07/18 07:06:10;;;;;;;6.95;3.38;;;;;;;;;;5144237;27;20051;-69
2022/07/18 07:08:36;;;;;;;4.95;2.90;;;;;;;;;;5152441;27;20075;-67
2022/07/18 07:11:03;;;;;;;6.88;4.20;;;;;;;;;;5152724;27;20124;-68
2022/07/18 07:13:31;;;;;;;7.70;3.63;;;;;;;;;;5152654;27;20519;-65
2022/07/18 07:15:57;;;;;;;8.60;3.78;;;;;;;;;;5138679;27;20039;-66
2022/07/18 07:18:23;;;;;;;6.97;3.95;;;;;;;;;;5137006;27;20102;-66
2022/07/18 07:20:49;;;;;;;9.70;3.67;;;;;;;;;;5151889;27;20532;-67
2022/07/18 07:23:16;;;;;;;8.02;3.78;;;;;;;;;;5126321;27;20119;-66
2022/07/18 07:25:43;;;;;;;9.48;3.65;;;;;;;;;;5116996;27;20606;-65
2022/07/18 07:28:09;;;;;;;9.65;3.60;;;;;;;;;;5141938;27;20035;-66
2022/07/18 07:30:35;;;;;;;7.13;3.40;;;;;;;;;;5134083;27;20039;-66
2022/07/18 07:33:02;;;;;;;11.80;3.80;;;;;;;;;;5152964;27;20031;-66
2022/07/18 07:35:28;;;;;;;6.03;3.35;;;;;;;;;;5126626;27;20031;-67
2022/07/18 07:37:55;;;;;;;6.80;3.10;;;;;;;;;;5121438;27;20044;-66
2022/07/18 07:40:23;;;;;;;6.43;2.55;;;;;;;;;;5127060;27;20041;-64
2022/07/18 07:42:49;;;;;;;7.22;2.35;;;;;;;;;;5116430;27;20031;-65
2022/07/18 07:45:15;;;;;;;6.15;2.25;;;;;;;;;;5128365;28;20043;-66
2022/07/18 07:47:41;;;;;;;5.90;2.45;;;;;;;;;;5143689;27;20091;-64
2022/07/18 07:50:08;;;;;;;8.80;2.45;;;;;;;;;;5134101;27;20653;-64
2022/07/18 07:52:34;;;;;;;4.88;2.45;;;;;;;;;;5135426;27;20079;-65
2022/07/18 07:55:00;;;;;;;7.32;2.35;;;;;;;;;;5131251;27;20035;-66
2022/07/18 07:57:27;;;;;;;6.53;2.33;;;;;;;;;;5110758;27;20131;-66
2022/07/18 07:59:53;;;;;;;8.70;2.17;;;;;;;;;;5141373;27;20038;-65
2022/07/18 08:02:19;;;;;;;4.25;2.10;;;;;;;;;;5151551;27;20030;-67
2022/07/18 08:04:45;;;;;;;6.07;2.38;;;;;;;;;;5128989;27;20176;-64
2022/07/18 08:07:11;;;;;;;4.45;2.00;;;;;;;;;;5145110;27;20078;-66
2022/07/18 08:09:38;;;;;;;4.78;1.60;;;;;;;;;;5135992;27;20046;-67
2022/07/18 08:12:05;;;;;;;6.78;2.40;;;;;;;;;;5130446;27;20075;-65
2022/07/18 08:14:33;;;;;;;8.35;2.10;;;;;;;;;;5127758;27;20038;-64
2022/07/18 08:16:59;;;;;;;4.63;1.70;;;;;;;;;;5117852;27;20427;-65
2022/07/18 08:19:25;;;;;;;6.53;1.70;;;;;;;;;;5137322;27;20408;-64
2022/07/18 08:21:51;;;;;;;4.75;1.80;;;;;;;;;;5147359;27;20039;-65
2022/07/18 08:24:17;;;;;;;8.05;1.98;;;;;;;;;;5153755;27;20037;-64
2022/07/18 08:26:43;;;;;;;5.22;1.77;;;;;;;;;;5135275;27;20725;-65
2022/07/18 08:29:09;;;;;;;6.00;1.40;;;;;;;;;;5155690;27;20098;-65
2022/07/18 08:31:36;;;;;;;5.43;1.70;;;;;;;;;;5154263;27;20042;-65
2022/07/18 08:34:02;;;;;;;5.40;1.75;;;;;;;;;;5133181;27;20050;-66
2022/07/18 08:36:28;;;;;;;5.43;1.95;;;;;;;;;;5141970;27;20389;-65
2022/07/18 08:38:54;;;;;;;4.43;1.80;;;;;;;;;;5137208;27;20046;-66
2022/07/18 08:41:23;;;;;;;8.10;1.67;;;;;;;;;;5155346;27;20031;-65
2022/07/18 08:43:50;;;;;;;4.30;1.40;;;;;;;;;;5155248;27;20042;-64
2022/07/18 08:46:19;;;;;;;2.65;1.50;;;;;;;;;;5125794;27;20031;-63
2022/07/18 08:48:46;;;;;;;3.05;1.60;;;;;;;;;;5124605;27;20051;-64
2022/07/18 08:51:12;;;;;;;6.13;1.58;;;;;;;;;;5135572;27;20114;-64
2022/07/18 08:53:38;;;;;;;3.40;1.48;;;;;;;;;;5127002;27;20049;-67
2022/07/18 08:56:05;;;;;;;5.75;1.95;;;;;;;;;;5149769;27;20509;-65
2022/07/18 08:58:31;;;;;;;3.75;1.50;;;;;;;;;;5129223;27;20601;-65
2022/07/18 09:01:00;;;;;;;4.35;1.30;;;;;;;;;;5127924;27;20042;-66
2022/07/18 09:03:26;;;;;;;4.50;1.55;;;;;;;;;;5128230;27;20039;-65
2022/07/18 09:06:04;;;;;;;4.50;1.70;;;;;;;;;;5123148;27;20048;-65
2022/07/18 09:08:30;;;;;;;3.42;1.30;;;;;;;;;;5126497;27;20040;-66
2022/07/18 09:10:58;;;;;;;5.00;1.45;;;;;;;;;;5128308;27;20538;-66
2022/07/18 09:13:36;;;;;;;6.07;1.40;;;;;;;;;;5154852;27;20043;-65
2022/07/18 09:16:07;;;;;;;3.72;1.60;;;;;;;;;;5140794;27;20130;-65
2022/07/18 09:18:40;;;;;;;5.00;1.92;;;;;;;;;;5139073;27;20070;-64
2022/07/18 09:21:12;;;;;;;5.07;1.63;;;;;;;;;;5156094;27;20066;-65
2022/07/18 09:23:38;;;;;;;;;;;;;;;;;;5151064;27;20049;-65
2022/07/18 09:26:05;;;;;;;7.07;1.75;;;;;;;;;;5155280;27;20013;-67
2022/07/18 09:28:57;;;;;;;3.05;1.60;;;;;;;;;;5127760;27;20047;-66
2022/07/18 09:31:27;;;;;;;4.25;1.63;;;;;;;;;;5129761;27;20046;-66
2022/07/18 09:33:58;;;;;;;3.05;1.33;;;;;;;;;;5154204;27;20062;-65
2022/07/18 09:36:24;;;;;;;5.50;1.70;;;;;;;;;;5141159;27;20103;-66
2022/07/18 09:38:50;;;;;;;7.07;1.80;;;;;;;;;;5127282;27;20069;-66
2022/07/18 09:41:17;;;;;;;3.97;1.70;;;;;;;;;;5153585;27;20034;-66
2022/07/18 09:43:44;;;;;;;4.32;2.00;;;;;;;;;;5153506;27;20042;-66
2022/07/18 09:46:10;;;;;;;4.35;1.95;;;;;;;;;;5128780;27;20046;-66
2022/07/18 09:48:36;;;;;;;4.55;1.98;;;;;;;;;;5126085;27;20378;-67
2022/07/18 09:51:03;;;;;;;4.03;1.77;;;;;;;;;;5133565;27;20129;-67
2022/07/18 09:53:39;;;;;;;4.03;1.70;;;;;;;;;;5127408;27;20035;-66
2022/07/18 09:56:09;;;;;;;5.00;1.73;;;;;;;;;;5148279;27;20035;-68
2022/07/18 09:58:37;;;;;;;5.43;1.50;;;;;;;;;;5145663;27;20346;-67
2022/07/18 10:01:04;;;;;;;5.30;1.75;;;;;;;;;;5124733;27;20092;-68
2022/07/18 10:03:30;;;;;;;5.53;2.00;;;;;;;;;;5128352;27;20114;-68
2022/07/18 10:05:58;;;;;;;3.67;1.83;;;;;;;;;;5120106;27;20134;-67
2022/07/18 10:08:25;;;;;;;7.45;1.88;;;;;;;;;;5131061;27;20043;-67
2022/07/18 10:10:52;;;;;;;3.30;1.50;;;;;;;;;;5127656;27;20553;-67
2022/07/18 10:13:19;;;;;;;6.28;1.90;;;;;;;;;;5124024;27;20032;-67
2022/07/18 10:15:45;;;;;;;5.18;1.83;;;;;;;;;;5143092;27;20091;-67
2022/07/18 10:18:13;;;;;;;3.42;1.85;;;;;;;;;;5151056;27;20039;-66
2022/07/18 10:20:40;;;;;;;4.25;2.00;;;;;;;;;;5132181;27;20035;-67
2022/07/18 10:23:11;;;;;;;2.47;1.63;;;;;;;;;;5143650;27;20072;-67
2022/07/18 10:25:38;;;;;;;6.00;1.80;;;;;;;;;;5116028;27;20058;-66
2022/07/18 10:28:08;;;;;;;5.75;2.03;;;;;;;;;;5129905;27;20290;-68
2022/07/18 10:30:34;;;;;;;3.63;2.10;;;;;;;;;;5134254;27;20522;-66
2022/07/18 10:33:02;;;;;;;6.93;2.70;;;;;;;;;;5152132;27;20074;-66
2022/07/18 10:35:57;;;;;;;5.88;2.42;;;;;;;;;;5153259;27;20450;-66
2022/07/18 10:38:23;;;;;;;3.70;1.83;;;;;;;;;;5139434;27;20054;-66
2022/07/18 10:41:09;;;;;;;4.63;2.30;;;;;;;;;;5145532;27;20038;-66
2022/07/18 10:43:36;;;;;;;3.33;2.00;;;;;;;;;;5151827;27;20081;-66
2022/07/18 10:46:04;;;;;;;6.95;2.22;;;;;;;;;;5137384;27;20154;-66
2022/07/18 10:48:33;;;;;;;5.32;2.40;;;;;;;;;;5148343;27;20039;-66
2022/07/18 10:51:06;;;;;;;5.60;2.30;;;;;;;;;;5138649;27;20058;-66
2022/07/18 10:53:50;;;;;;;6.75;2.45;;;;;;;;;;5134318;27;20135;-66
2022/07/18 10:56:16;;;;;;;3.65;2.25;;;;;;;;;;5150167;27;20119;-65
2022/07/18 10:58:43;;;;;;;4.90;2.35;;;;;;;;;;5133905;27;20034;-66
2022/07/18 11:01:14;;;;;;;3.92;2.20;;;;;;;;;;5144347;27;20381;-65
2022/07/18 11:03:40;;;;;;;4.28;2.00;;;;;;;;;;5145439;27;20492;-65
2022/07/18 11:06:06;;;;;;;3.35;1.80;;;;;;;;;;5154313;27;20107;-65
2022/07/18 11:08:33;;;;;;;4.40;2.30;;;;;;;;;;5132291;27;20157;-65
2022/07/18 11:11:02;;;;;;;4.20;2.08;;;;;;;;;;5116972;27;20115;-66
2022/07/18 11:13:28;;;;;;;3.58;2.30;;;;;;;;;;5130851;27;20127;-65
2022/07/18 11:15:54;;;;;;;4.20;2.08;;;;;;;;;;5135591;27;20035;-66
2022/07/18 11:18:20;;;;;;;4.82;2.30;;;;;;;;;;5126216;27;20035;-66
2022/07/18 11:20:47;;;;;;;3.25;1.90;;;;;;;;;;5136683;27;20022;-65
2022/07/18 11:23:18;;;;;;;3.30;1.88;;;;;;;;;;5148712;27;20666;-65
2022/07/18 11:25:44;;;;;;;3.90;2.00;;;;;;;;;;5132608;27;20084;-65
2022/07/18 11:28:11;;;;;;;5.47;2.08;;;;;;;;;;5135723;27;20269;-65
2022/07/18 11:30:38;;;;;;;5.10;2.30;;;;;;;;;;5123722;27;20031;-67
2022/07/18 11:33:05;;;;;;;5.20;2.00;;;;;;;;;;5138043;27;20481;-67
2022/07/18 11:35:31;;;;;;;4.78;2.10;;;;;;;;;;5139459;27;20093;-66
2022/07/18 11:37:57;;;;;;;4.07;2.22;;;;;;;;;;5146250;27;20034;-64
2022/07/18 11:40:23;;;;;;;5.50;2.30;;;;;;;;;;5149578;27;20709;-65
2022/07/18 11:42:49;;;;;;;4.78;2.20;;;;;;;;;;5148882;27;20031;-65
2022/07/18 11:45:17;;;;;;;3.28;2.00;;;;;;;;;;5142943;27;20072;-64
2022/07/18 11:47:47;;;;;;;4.15;2.05;;;;;;;;;;5143794;27;20039;-64
2022/07/18 11:50:14;;;;;;;3.53;2.13;;;;;;;;;;5135383;27;20088;-66
2022/07/18 11:52:40;;;;;;;4.22;2.45;;;;;;;;;;5146837;27;20035;-65
2022/07/18 11:55:06;;;;;;;4.82;2.20;;;;;;;;;;5142609;27;20058;-66
2022/07/18 11:57:33;;;;;;;4.20;2.35;;;;;;;;;;5144736;27;20143;-66
2022/07/18 12:00:01;;;;;;;3.90;2.35;;;;;;;;;;5149597;27;20093;-67
2022/07/18 12:02:27;;;;;;;7.60;2.67;;;;;;;;;;5137044;27;20562;-66
2022/07/18 12:04:53;;;;;;;5.10;2.38;;;;;;;;;;5150384;27;20051;-65
2022/07/18 12:07:22;;;;;;;3.17;2.10;;;;;;;;;;5145512;27;20069;-66
2022/07/18 12:09:48;;;;;;;6.95;2.15;;;;;;;;;;5140600;27;20389;-66
2022/07/18 12:12:15;;;;;;;6.38;2.33;;;;;;;;;;5148539;27;20461;-68
2022/07/18 12:14:41;;;;;;;3.97;2.50;;;;;;;;;;5139955;27;20034;-68
2022/07/18 12:17:08;;;;;;;5.22;2.60;;;;;;;;;;5146788;27;20047;-66
2022/07/18 12:19:35;;;;;;;4.03;2.50;;;;;;;;;;5144055;27;20620;-66
2022/07/18 12:22:09;;;;;;;5.43;2.15;;;;;;;;;;5132678;27;20046;-68
2022/07/18 12:24:38;;;;;;;4.13;2.65;;;;;;;;;;5137254;27;20039;-66
2022/07/18 12:27:23;;;;;;;4.43;2.70;;;;;;;;;;5129045;27;20082;-67
2022/07/18 12:30:05;;;;;;;5.15;2.72;;;;;;;;;;5132264;27;20063;-67
2022/07/18 12:32:40;;;;;;;5.03;2.45;;;;;;;;;;5142646;27;20039;-68
2022/07/18 12:35:11;;;;;;;4.47;2.38;;;;;;;;;;5140535;27;20091;-66
2022/07/18 12:37:39;;;;;;;4.20;2.55;;;;;;;;;;5153988;27;20085;-65
2022/07/18 12:40:06;;;;;;;5.75;2.80;;;;;;;;;;5151261;27;20046;-65
2022/07/18 12:42:35;;;;;;;5.53;3.08;;;;;;;;;;5137642;27;20039;-67
2022/07/18 12:45:01;;;;;;;5.75;2.70;;;;;;;;;;5143232;27;20141;-67
2022/07/18 12:47:28;;;;;;;5.95;2.80;;;;;;;;;;5148825;27;20042;-65
2022/07/18 12:49:54;;;;;;;5.13;2.80;;;;;;;;;;5139962;27;20086;-66
2022/07/18 12:52:20;;;;;;;4.15;2.50;;;;;;;;;;5138910;27;20047;-67
2022/07/18 12:54:46;;;;;;;3.05;2.50;;;;;;;;;;5149797;27;20043;-65
2022/07/18 12:57:13;;;;;;;4.00;2.40;;;;;;;;;;5145318;27;20039;-65
2022/07/18 12:59:39;;;;;;;4.68;2.28;;;;;;;;;;5147122;27;20056;-66
2022/07/18 13:02:06;;;;;;;4.75;2.67;;;;;;;;;;5153733;27;20047;-66
2022/07/18 13:04:32;;;;;;;4.05;2.40;;;;;;;;;;5143773;27;20063;-68
2022/07/18 13:06:58;;;;;;;3.85;2.42;;;;;;;;;;5140234;27;20042;-69
2022/07/18 13:09:24;;;;;;;4.20;2.50;;;;;;;;;;5139751;27;20051;-66
2022/07/18 13:11:50;;;;;;;4.57;2.53;;;;;;;;;;5146170;27;20043;-66
2022/07/18 13:14:17;;;;;;;3.65;2.47;;;;;;;;;;5124154;27;20136;-66
2022/07/18 13:16:47;;;;;;;3.47;2.35;;;;;;;;;;5148463;27;20118;-67
2022/07/18 13:19:16;;;;;;;4.18;2.30;;;;;;;;;;5148975;27;20660;-66
2022/07/18 13:21:43;;;;;;;3.85;2.75;;;;;;;;;;5142145;27;20035;-65
2022/07/18 13:24:09;;;;;;;3.35;2.40;;;;;;;;;;5150261;27;20031;-68
2022/07/18 13:26:35;;;;;;;3.70;2.38;;;;;;;;;;5124577;27;20406;-70
2022/07/18 13:29:01;;;;;;;3.35;2.55;;;;;;;;;;5141573;27;20031;-69
2022/07/18 13:31:28;;;;;;;4.85;2.75;;;;;;;;;;5143900;27;20087;-66
2022/07/18 13:33:54;;;;;;;5.60;2.67;;;;;;;;;;5137021;27;20046;-66
2022/07/18 13:36:20;;;;;;;4.32;2.65;;;;;;;;;;5150650;27;20037;-66
2022/07/18 13:38:46;;;;;;;3.38;2.47;;;;;;;;;;5138137;27;20118;-65
2022/07/18 13:41:13;;;;;;;4.40;2.75;;;;;;;;;;5145442;27;20042;-64
2022/07/18 13:43:40;;;;;;;5.53;2.50;;;;;;;;;;5144192;27;20050;-67
2022/07/18 13:46:12;;;;;;;3.63;2.22;;;;;;;;;;5137946;27;20050;-67
2022/07/18 13:48:39;;;;;;;3.45;2.35;;;;;;;;;;5141812;27;20589;-67
2022/07/18 13:51:05;;;;;;;3.80;2.13;;;;;;;;;;5148070;27;20046;-66
2022/07/18 13:53:32;;;;;;;5.57;2.22;;;;;;;;;;5141532;27;20068;-66
2022/07/18 13:55:58;;;;;;;4.70;2.50;;;;;;;;;;5144891;27;20042;-65
2022/07/18 13:58:24;;;;;;;4.95;2.58;;;;;;;;;;5134061;27;20062;-65
2022/07/18 14:00:50;;;;;;;3.25;2.15;;;;;;;;;;5143236;27;20035;-66
2022/07/18 14:03:17;;;;;;;5.10;2.28;;;;;;;;;;5142507;27;20110;-67
2022/07/18 14:05:43;;;;;;;3.25;2.40;;;;;;;;;;5140842;27;20823;-66
2022/07/18 14:08:10;;;;;;;3.90;2.70;;;;;;;;;;5135645;27;20103;-67
2022/07/18 14:10:36;;;;;;;3.85;2.55;;;;;;;;;;5134741;27;20110;-67
2022/07/18 14:13:03;;;;;;;4.13;2.28;;;;;;;;;;5143075;27;20126;-67
2022/07/18 14:15:29;;;;;;;5.50;2.45;;;;;;;;;;5131150;27;20038;-67
2022/07/18 14:17:55;;;;;;;2.70;2.20;;;;;;;;;;5124329;27;20048;-67
2022/07/18 14:20:21;;;;;;;3.20;2.03;;;;;;;;;;5128608;27;20039;-67
2022/07/18 14:22:48;;;;;;;4.88;2.30;;;;;;;;;;5134806;27;20031;-67
2022/07/18 14:25:15;;;;;;;3.50;2.40;;;;;;;;;;5143055;27;20381;-67
2022/07/18 14:27:42;;;;;;;3.30;2.63;;;;;;;;;;5130426;27;20053;-67
2022/07/18 14:30:09;;;;;;;7.22;2.25;;;;;;;;;;5136853;27;20043;-67
2022/07/18 14:32:36;;;;;;;4.10;2.17;;;;;;;;;;5138145;27;20042;-67
2022/07/18 14:35:02;;;;;;;4.28;2.22;;;;;;;;;;5127341;27;20047;-67
2022/07/18 14:37:28;;;;;;;2.50;2.10;;;;;;;;;;5138582;27;20077;-67
2022/07/18 14:39:54;;;;;;;4.35;2.38;;;;;;;;;;5124470;27;20413;-67